sensor_id;sensor_type;location;lat;lon;timestamp;P1;durP1;ratioP1;P2;durP2;ratioP2
71763;SDS011;59602;52.142;5.408;2023-08-01T00:05:19;2.60;;;0.70;;
71763;SDS011;59602;52.142;5.408;2023-08-01T00:08:10;3.63;;;0.82;;
71763;SDS011;59602;52.142;5.408;2023-08-01T00:10:39;3.10;;;0.70;;
71763;SDS011;59602;52.142;5.408;2023-08-01T00:13:47;3.00;;;0.70;;
71763;SDS011;59602;52.142;5.408;2023-08-01T00:17:14;3.13;;;0.60;;
71763;SDS011;59602;52.142;5.408;2023-08-01T00:19:42;4.40;;;1.00;;
71763;SDS011;59602;52.142;5.408;2023-08-01T00:22:17;2.75;;;0.77;;
71763;SDS011;59602;52.142;5.408;2023-08-01T00:25:27;6.13;;;0.90;;
71763;SDS011;59602;52.142;5.408;2023-08-01T00:28:33;5.13;;;0.77;;
71763;SDS011;59602;52.142;5.408;2023-08-01T00:31:39;4.53;;;0.80;;
71763;SDS011;59602;52.142;5.408;2023-08-01T00:34:06;4.60;;;1.00;;
71763;SDS011;59602;52.142;5.408;2023-08-01T00:36:39;3.53;;;0.98;;
71763;SDS011;59602;52.142;5.408;2023-08-01T00:39:10;3.85;;;1.13;;
71763;SDS011;59602;52.142;5.408;2023-08-01T00:42:08;2.88;;;0.85;;
71763;SDS011;59602;52.142;5.408;2023-08-01T00:44:59;4.93;;;1.10;;
71763;SDS011;59602;52.142;5.408;2023-08-01T00:47:28;3.55;;;1.05;;
71763;SDS011;59602;52.142;5.408;2023-08-01T00:50:33;3.22;;;0.98;;
71763;SDS011;59602;52.142;5.408;2023-08-01T00:53:40;5.82;;;0.75;;
71763;SDS011;59602;52.142;5.408;2023-08-01T00:56:46;3.65;;;0.93;;
71763;SDS011;59602;52.142;5.408;2023-08-01T00:59:20;3.93;;;0.90;;
71763;SDS011;59602;52.142;5.408;2023-08-01T01:02:07;5.35;;;0.70;;
71763;SDS011;59602;52.142;5.408;2023-08-01T01:04:55;3.15;;;0.80;;
71763;SDS011;59602;52.142;5.408;2023-08-01T01:07:23;4.50;;;0.80;;
71763;SDS011;59602;52.142;5.408;2023-08-01T01:10:06;3.75;;;1.00;;
71763;SDS011;59602;52.142;5.408;2023-08-01T01:12:39;3.33;;;1.20;;
71763;SDS011;59602;52.142;5.408;2023-08-01T01:15:29;4.22;;;0.90;;
71763;SDS011;59602;52.142;5.408;2023-08-01T01:18:23;4.07;;;1.00;;
71763;SDS011;59602;52.142;5.408;2023-08-01T01:20:53;3.35;;;0.70;;
71763;SDS011;59602;52.142;5.408;2023-08-01T01:23:46;3.70;;;0.80;;
71763;SDS011;59602;52.142;5.408;2023-08-01T01:26:33;3.80;;;0.90;;
71763;SDS011;59602;52.142;5.408;2023-08-01T01:29:25;4.22;;;1.17;;
71763;SDS011;59602;52.142;5.408;2023-08-01T01:31:56;4.45;;;1.00;;
71763;SDS011;59602;52.142;5.408;2023-08-01T01:34:45;2.53;;;1.10;;
71763;SDS011;59602;52.142;5.408;2023-08-01T01:37:21;5.05;;;1.25;;
71763;SDS011;59602;52.142;5.408;2023-08-01T01:39:57;3.00;;;1.00;;
71763;SDS011;59602;52.142;5.408;2023-08-01T01:42:32;3.70;;;1.33;;
71763;SDS011;59602;52.142;5.408;2023-08-01T01:45:01;3.13;;;1.05;;
71763;SDS011;59602;52.142;5.408;2023-08-01T01:47:31;5.00;;;1.13;;
71763;SDS011;59602;52.142;5.408;2023-08-01T01:50:00;5.10;;;1.15;;
71763;SDS011;59602;52.142;5.408;2023-08-01T01:55:21;5.22;;;1.30;;
71763;SDS011;59602;52.142;5.408;2023-08-01T01:57:51;3.28;;;1.10;;
71763;SDS011;59602;52.142;5.408;2023-08-01T02:00:34;3.78;;;1.58;;
71763;SDS011;59602;52.142;5.408;2023-08-01T02:03:06;6.15;;;1.10;;
71763;SDS011;59602;52.142;5.408;2023-08-01T02:05:54;4.43;;;1.30;;
71763;SDS011;59602;52.142;5.408;2023-08-01T02:08:43;5.75;;;1.10;;
71763;SDS011;59602;52.142;5.408;2023-08-01T02:15:28;5.93;;;1.15;;
71763;SDS011;59602;52.142;5.408;2023-08-01T02:18:34;6.43;;;1.35;;
71763;SDS011;59602;52.142;5.408;2023-08-01T02:21:53;6.23;;;1.27;;
71763;SDS011;59602;52.142;5.408;2023-08-01T02:24:23;6.20;;;1.58;;
71763;SDS011;59602;52.142;5.408;2023-08-01T02:27:27;6.45;;;1.67;;
71763;SDS011;59602;52.142;5.408;2023-08-01T02:33:32;5.93;;;2.00;;
71763;SDS011;59602;52.142;5.408;2023-08-01T02:37:00;6.47;;;1.73;;
71763;SDS011;59602;52.142;5.408;2023-08-01T02:43:08;4.85;;;1.50;;
71763;SDS011;59602;52.142;5.408;2023-08-01T02:49:22;6.28;;;1.60;;
71763;SDS011;59602;52.142;5.408;2023-08-01T02:51:55;6.93;;;1.03;;
71763;SDS011;59602;52.142;5.408;2023-08-01T03:02:48;6.35;;;0.90;;
71763;SDS011;59602;52.142;5.408;2023-08-01T03:05:53;4.38;;;1.05;;
71763;SDS011;59602;52.142;5.408;2023-08-01T03:08:41;3.77;;;1.00;;
71763;SDS011;59602;52.142;5.408;2023-08-01T03:11:13;4.20;;;1.13;;
71763;SDS011;59602;52.142;5.408;2023-08-01T03:24:19;5.03;;;0.80;;
71763;SDS011;59602;52.142;5.408;2023-08-01T03:30:20;4.97;;;1.00;;
71763;SDS011;59602;52.142;5.408;2023-08-01T03:33:15;6.68;;;1.00;;
71763;SDS011;59602;52.142;5.408;2023-08-01T03:39:14;8.60;;;1.50;;
71763;SDS011;59602;52.142;5.408;2023-08-01T03:42:37;8.57;;;1.60;;
71763;SDS011;59602;52.142;5.408;2023-08-01T03:52:07;4.57;;;1.17;;
71763;SDS011;59602;52.142;5.408;2023-08-01T03:55:12;8.53;;;1.60;;
71763;SDS011;59602;52.142;5.408;2023-08-01T04:02:06;6.82;;;1.52;;
71763;SDS011;59602;52.142;5.408;2023-08-01T04:05:25;4.78;;;1.35;;
71763;SDS011;59602;52.142;5.408;2023-08-01T04:14:52;6.90;;;1.83;;
71763;SDS011;59602;52.142;5.408;2023-08-01T04:21:01;6.15;;;1.63;;
71763;SDS011;59602;52.142;5.408;2023-08-01T04:23:53;7.95;;;1.60;;
71763;SDS011;59602;52.142;5.408;2023-08-01T04:27:24;9.60;;;2.20;;
71763;SDS011;59602;52.142;5.408;2023-08-01T04:31:15;4.57;;;1.40;;
71763;SDS011;59602;52.142;5.408;2023-08-01T04:34:53;5.95;;;1.75;;
71763;SDS011;59602;52.142;5.408;2023-08-01T04:38:35;8.93;;;1.98;;
71763;SDS011;59602;52.142;5.408;2023-08-01T05:47:52;7.28;;;1.88;;
71763;SDS011;59602;52.142;5.408;2023-08-01T06:04:39;5.55;;;1.48;;
71763;SDS011;59602;52.142;5.408;2023-08-01T07:04:57;5.43;;;1.30;;
71763;SDS011;59602;52.142;5.408;2023-08-01T07:15:15;5.70;;;1.23;;
71763;SDS011;59602;52.142;5.408;2023-08-01T07:20:44;4.03;;;0.90;;
71763;SDS011;59602;52.142;5.408;2023-08-01T07:32:08;4.55;;;0.95;;
71763;SDS011;59602;52.142;5.408;2023-08-01T07:35:00;4.47;;;0.80;;
71763;SDS011;59602;52.142;5.408;2023-08-01T07:37:26;5.60;;;0.90;;
71763;SDS011;59602;52.142;5.408;2023-08-01T07:39:58;5.80;;;0.80;;
71763;SDS011;59602;52.142;5.408;2023-08-01T07:42:31;3.23;;;0.83;;
71763;SDS011;59602;52.142;5.408;2023-08-01T07:48:41;6.00;;;0.90;;
71763;SDS011;59602;52.142;5.408;2023-08-01T07:51:10;5.03;;;0.90;;
71763;SDS011;59602;52.142;5.408;2023-08-01T07:53:38;6.20;;;1.02;;
71763;SDS011;59602;52.142;5.408;2023-08-01T07:56:09;4.03;;;0.77;;
71763;SDS011;59602;52.142;5.408;2023-08-01T07:58:43;7.95;;;1.25;;
71763;SDS011;59602;52.142;5.408;2023-08-01T08:01:46;4.50;;;1.08;;
71763;SDS011;59602;52.142;5.408;2023-08-01T08:04:02;4.63;;;0.80;;
71763;SDS011;59602;52.142;5.408;2023-08-01T08:06:35;6.78;;;1.13;;
71763;SDS011;59602;52.142;5.408;2023-08-01T08:09:08;4.53;;;1.07;;
71763;SDS011;59602;52.142;5.408;2023-08-01T08:11:35;8.05;;;1.17;;
71763;SDS011;59602;52.142;5.408;2023-08-01T08:14:04;6.15;;;1.00;;
71763;SDS011;59602;52.142;5.408;2023-08-01T08:28:35;4.18;;;1.02;;
71763;SDS011;59602;52.142;5.408;2023-08-01T08:31:02;6.50;;;1.02;;
71763;SDS011;59602;52.142;5.408;2023-08-01T08:33:29;6.25;;;1.20;;
71763;SDS011;59602;52.142;5.408;2023-08-01T08:35:56;4.15;;;0.73;;
71763;SDS011;59602;52.142;5.408;2023-08-01T08:38:23;2.83;;;0.63;;
71763;SDS011;59602;52.142;5.408;2023-08-01T08:43:20;2.97;;;0.60;;
71763;SDS011;59602;52.142;5.408;2023-08-01T08:45:47;3.00;;;0.80;;
71763;SDS011;59602;52.142;5.408;2023-08-01T08:48:19;3.72;;;0.60;;
71763;SDS011;59602;52.142;5.408;2023-08-01T08:51:26;6.20;;;0.80;;
71763;SDS011;59602;52.142;5.408;2023-08-01T08:54:03;5.20;;;0.90;;
71763;SDS011;59602;52.142;5.408;2023-08-01T09:00:18;2.13;;;0.50;;
71763;SDS011;59602;52.142;5.408;2023-08-01T09:02:57;4.03;;;0.52;;
71763;SDS011;59602;52.142;5.408;2023-08-01T09:45:49;5.60;;;0.80;;
71763;SDS011;59602;52.142;5.408;2023-08-01T09:48:39;4.70;;;0.88;;
71763;SDS011;59602;52.142;5.408;2023-08-01T09:52:25;2.80;;;0.60;;
71763;SDS011;59602;52.142;5.408;2023-08-01T09:59:56;3.83;;;0.70;;
71763;SDS011;59602;52.142;5.408;2023-08-01T10:06:54;5.80;;;1.02;;
71763;SDS011;59602;52.142;5.408;2023-08-01T10:09:38;6.13;;;1.07;;
71763;SDS011;59602;52.142;5.408;2023-08-01T10:12:07;3.72;;;0.80;;
71763;SDS011;59602;52.142;5.408;2023-08-01T10:14:36;3.47;;;0.50;;
71763;SDS011;59602;52.142;5.408;2023-08-01T10:17:30;3.35;;;0.77;;
71763;SDS011;59602;52.142;5.408;2023-08-01T10:20:03;4.07;;;0.52;;
71763;SDS011;59602;52.142;5.408;2023-08-01T10:22:45;4.80;;;0.60;;
71763;SDS011;59602;52.142;5.408;2023-08-01T10:25:30;5.32;;;0.73;;
71763;SDS011;59602;52.142;5.408;2023-08-01T10:28:15;5.53;;;0.80;;
71763;SDS011;59602;52.142;5.408;2023-08-01T10:30:45;5.43;;;0.82;;
71763;SDS011;59602;52.142;5.408;2023-08-01T10:33:13;2.70;;;0.68;;
71763;SDS011;59602;52.142;5.408;2023-08-01T10:35:48;3.83;;;0.60;;
71763;SDS011;59602;52.142;5.408;2023-08-01T10:38:21;4.75;;;0.50;;
71763;SDS011;59602;52.142;5.408;2023-08-01T10:40:51;3.40;;;0.60;;
71763;SDS011;59602;52.142;5.408;2023-08-01T10:43:19;4.07;;;0.40;;
71763;SDS011;59602;52.142;5.408;2023-08-01T10:46:00;5.43;;;0.50;;
71763;SDS011;59602;52.142;5.408;2023-08-01T10:48:47;4.07;;;0.50;;
71763;SDS011;59602;52.142;5.408;2023-08-01T10:51:15;1.55;;;0.40;;
71763;SDS011;59602;52.142;5.408;2023-08-01T10:53:42;5.55;;;0.63;;
71763;SDS011;59602;52.142;5.408;2023-08-01T10:56:36;2.03;;;0.47;;
71763;SDS011;59602;52.142;5.408;2023-08-01T10:59:04;1.77;;;0.45;;
71763;SDS011;59602;52.142;5.408;2023-08-01T11:01:42;2.73;;;0.90;;
71763;SDS011;59602;52.142;5.408;2023-08-01T11:07:33;3.47;;;0.70;;
71763;SDS011;59602;52.142;5.408;2023-08-01T11:10:27;3.95;;;0.50;;
71763;SDS011;59602;52.142;5.408;2023-08-01T11:13:02;2.30;;;0.90;;
71763;SDS011;59602;52.142;5.408;2023-08-01T11:15:29;2.97;;;0.40;;
71763;SDS011;59602;52.142;5.408;2023-08-01T11:17:56;6.28;;;0.60;;
71763;SDS011;59602;52.142;5.408;2023-08-01T11:20:26;4.18;;;0.70;;
71763;SDS011;59602;52.142;5.408;2023-08-01T11:23:03;6.13;;;0.60;;
71763;SDS011;59602;52.142;5.408;2023-08-01T11:25:52;2.60;;;0.60;;
71763;SDS011;59602;52.142;5.408;2023-08-01T11:28:40;4.30;;;0.40;;
71763;SDS011;59602;52.142;5.408;2023-08-01T11:31:39;2.38;;;0.50;;
71763;SDS011;59602;52.142;5.408;2023-08-01T11:42:05;3.63;;;0.40;;
71763;SDS011;59602;52.142;5.408;2023-08-01T11:44:35;4.47;;;0.70;;
71763;SDS011;59602;52.142;5.408;2023-08-01T11:47:02;7.82;;;1.73;;
71763;SDS011;59602;52.142;5.408;2023-08-01T11:56:08;5.55;;;0.50;;
71763;SDS011;59602;52.142;5.408;2023-08-01T11:59:15;2.37;;;0.60;;
71763;SDS011;59602;52.142;5.408;2023-08-01T12:01:46;4.00;;;0.40;;
71763;SDS011;59602;52.142;5.408;2023-08-01T12:04:30;3.42;;;0.45;;
71763;SDS011;59602;52.142;5.408;2023-08-01T12:07:24;4.78;;;0.70;;
71763;SDS011;59602;52.142;5.408;2023-08-01T12:10:36;3.53;;;0.50;;
71763;SDS011;59602;52.142;5.408;2023-08-01T12:13:27;2.80;;;0.50;;
71763;SDS011;59602;52.142;5.408;2023-08-01T12:15:56;5.28;;;0.43;;
71763;SDS011;59602;52.142;5.408;2023-08-01T12:18:38;2.58;;;0.40;;
71763;SDS011;59602;52.142;5.408;2023-08-01T12:21:27;2.15;;;0.43;;
71763;SDS011;59602;52.142;5.408;2023-08-01T12:27:45;7.20;;;0.90;;
71763;SDS011;59602;52.142;5.408;2023-08-01T12:30:18;3.10;;;0.65;;
71763;SDS011;59602;52.142;5.408;2023-08-01T12:33:26;7.28;;;0.75;;
71763;SDS011;59602;52.142;5.408;2023-08-01T12:35:56;3.45;;;0.68;;
71763;SDS011;59602;52.142;5.408;2023-08-01T12:41:45;3.93;;;0.53;;
71763;SDS011;59602;52.142;5.408;2023-08-01T13:05:10;3.65;;;0.50;;
71763;SDS011;59602;52.142;5.408;2023-08-01T15:48:14;3.17;;;0.60;;
71763;SDS011;59602;52.142;5.408;2023-08-01T15:51:11;5.35;;;0.50;;
71763;SDS011;59602;52.142;5.408;2023-08-01T15:53:44;1.43;;;0.30;;
71763;SDS011;59602;52.142;5.408;2023-08-01T15:56:34;3.55;;;0.65;;
71763;SDS011;59602;52.142;5.408;2023-08-01T16:03:07;4.35;;;0.40;;
71763;SDS011;59602;52.142;5.408;2023-08-01T16:06:13;3.05;;;0.50;;
71763;SDS011;59602;52.142;5.408;2023-08-01T16:09:00;4.20;;;0.40;;
71763;SDS011;59602;52.142;5.408;2023-08-01T16:11:27;1.77;;;0.30;;
71763;SDS011;59602;52.142;5.408;2023-08-01T16:14:26;2.20;;;0.20;;
71763;SDS011;59602;52.142;5.408;2023-08-01T16:24:02;2.53;;;0.50;;
71763;SDS011;59602;52.142;5.408;2023-08-01T16:29:34;2.58;;;0.30;;
71763;SDS011;59602;52.142;5.408;2023-08-01T16:39:24;3.67;;;0.30;;
71763;SDS011;59602;52.142;5.408;2023-08-01T16:42:57;2.88;;;0.50;;
71763;SDS011;59602;52.142;5.408;2023-08-01T16:46:15;4.13;;;0.30;;
71763;SDS011;59602;52.142;5.408;2023-08-01T16:58:11;2.90;;;0.50;;
71763;SDS011;59602;52.142;5.408;2023-08-01T17:01:04;4.88;;;0.60;;
71763;SDS011;59602;52.142;5.408;2023-08-01T17:04:08;3.53;;;0.50;;
71763;SDS011;59602;52.142;5.408;2023-08-01T17:07:10;3.75;;;0.60;;
71763;SDS011;59602;52.142;5.408;2023-08-01T17:09:57;5.37;;;0.40;;
71763;SDS011;59602;52.142;5.408;2023-08-01T17:20:59;3.67;;;0.40;;
71763;SDS011;59602;52.142;5.408;2023-08-01T17:24:31;2.63;;;0.40;;
71763;SDS011;59602;52.142;5.408;2023-08-01T17:30:23;3.67;;;0.50;;
71763;SDS011;59602;52.142;5.408;2023-08-01T17:49:11;1.88;;;0.30;;
71763;SDS011;59602;52.142;5.408;2023-08-01T17:52:06;1.98;;;0.50;;
